Date,TemperatureHighF,TemperatureAvgF,TemperatureLowF,DewpointHighF,DewpointAvgF,DewpointLowF,HumidityHigh,HumidityAvg,HumidityLow,PressureMaxIn,PressureMinIn,WindSpeedMaxMPH,WindSpeedAvgMPH,GustSpeedMaxMPH,PrecipitationSumIn
2013-1-1,42.1,38.0,32.9,32.0,28.1,23.9,75,68,59,29.58,29.47,5,1,5,0.00
2013-1-2,49.9,34.2,25.6,28.3,21.7,14.8,76,61,36,29.78,29.56,10,2,10,0.00
2013-1-3,42.1,27.8,18.4,23.8,17.0,11.3,76,64,42,29.79,29.70,5,1,5,0.00
2013-1-4,53.8,36.9,32.4,28.0,21.3,18.9,60,53,37,29.76,29.67,12,5,12,0.00
2013-1-5,55.3,38.6,31.1,29.9,22.8,19.4,68,54,34,29.93,29.71,11,3,11,0.00
2013-1-6,45.7,38.3,30.4,29.3,26.9,22.8,75,64,51,29.73,29.58,4,1,4,0.00
2013-1-7,59.4,39.0,24.3,33.0,25.6,16.6,72,59,37,30.00,29.71,6,2,6,0.00
2013-1-8,72.5,36.5,21.8,39.4,24.1,15.6,79,64,30,29.95,29.88,3,0,3,0.00
2013-1-9,51.8,37.4,24.8,41.7,29.4,18.6,80,73,56,29.95,29.78,8,1,8,0.00
2013-1-10,47.3,41.3,34.4,32.9,29.2,25.6,71,62,57,30.12,29.95,5,1,5,0.00
2013-1-11,49.5,42.5,36.5,40.0,33.4,27.2,86,71,51,30.02,29.65,5,1,5,0.00
2013-1-12,70.7,46.7,40.9,56.3,41.6,37.5,89,83,60,29.73,29.65,2,0,2,0.00
2013-1-13,67.1,50.5,41.2,56.9,45.6,37.8,91,84,69,29.64,29.50,2,0,2,0.00
2013-1-14,59.4,52.1,43.6,55.9,45.1,35.8,90,77,64,29.85,29.50,5,1,5,0.00
2013-1-15,38.7,36.4,34.9,34.0,32.5,31.3,88,86,83,29.81,29.71,1,0,1,0.00
2013-1-16,38.7,36.4,34.0,36.3,33.6,30.8,92,90,88,29.71,29.39,6,1,6,0.00
2013-1-17,43.4,39.2,34.9,37.2,32.4,29.0,90,77,67,29.70,29.54,6,1,6,0.00
2013-1-18,56.5,35.6,26.5,29.3,20.4,12.5,78,55,31,30.03,29.63,12,3,12,0.00
2013-1-19,67.3,43.7,29.5,30.8,24.9,19.5,69,50,24,29.91,29.49,5,2,5,0.00
2013-1-20,60.3,45.7,31.5,31.5,20.8,10.4,57,39,19,29.65,29.38,14,5,14,0.00
2013-1-21,56.5,33.4,25.2,24.9,15.7,11.4,62,49,28,29.65,29.36,11,3,11,0.00
2013-1-22,31.1,19.6,13.1,9.9,-0.6,-4.0,51,41,26,29.83,29.52,14,6,14,0.00
2013-1-23,37.8,19.8,11.3,9.2,1.6,-2.7,60,46,30,29.88,29.68,10,2,10,0.00
2013-1-24,39.6,21.9,13.3,14.1,8.0,-0.7,73,56,35,30.07,29.63,12,2,12,0.00
2013-1-25,23.0,18.3,11.5,15.8,8.2,-0.4,79,65,52,30.06,29.60,5,1,5,0.00
2013-1-26,34.9,26.1,18.4,26.7,19.2,11.7,78,75,68,29.97,29.62,5,1,5,0.00
2013-1-27,44.3,35.0,27.5,25.7,20.7,17.5,70,56,44,30.10,29.99,4,1,4,0.00
2013-1-28,52.7,38.7,28.8,44.0,32.7,20.6,88,79,71,29.99,29.60,3,1,3,0.00
2013-1-29,74.7,60.2,51.1,56.3,50.0,44.0,83,70,51,29.67,29.49,6,2,6,0.00
2013-1-30,70.2,56.8,46.4,60.3,51.5,41.3,92,83,70,29.49,28.83,8,2,8,0.00
2013-1-31,54.7,39.1,29.2,52.0,26.0,13.1,92,60,44,29.45,28.77,26,8,26,0.00
2013-2-1,33.1,25.5,16.4,21.2,10.8,3.0,80,54,35,29.93,29.37,17,6,17,0.00
2013-2-2,30.8,20.7,11.2,19.5,10.3,2.6,75,64,48,29.93,29.55,7,1,7,0.00
2013-2-3,36.4,28.9,23.6,27.9,21.9,14.2,81,75,60,29.55,29.36,17,3,17,0.00
2013-2-4,39.6,30.9,23.4,22.1,16.9,12.3,66,56,44,29.63,29.43,13,3,13,0.00
2013-2-5,41.0,34.1,30.4,34.0,28.0,21.6,86,78,66,29.49,29.40,2,0,2,0.00
2013-2-6,50.6,36.0,26.3,33.9,27.6,20.0,87,72,49,29.89,29.49,9,2,9,0.00
2013-2-7,41.4,31.9,23.4,26.8,23.1,17.6,81,70,54,29.96,29.75,6,1,6,0.00
2013-2-8,43.6,36.3,32.2,37.4,29.4,23.0,83,76,66,29.74,29.35,14,3,14,0.00
2013-2-9,52.0,33.5,23.8,23.0,18.4,12.3,68,55,32,29.94,29.55,13,4,13,0.00
2013-2-10,48.4,33.2,16.4,23.6,17.0,9.5,76,54,32,30.00,29.73,7,2,7,0.00
2013-2-11,68.4,50.0,35.5,51.0,36.0,22.3,87,63,25,29.73,29.25,13,4,13,0.00
2013-2-12,71.8,47.7,37.8,33.8,26.2,21.2,53,44,25,29.55,29.40,11,4,11,0.00
2013-2-13,48.4,35.5,26.8,32.9,25.6,18.2,81,67,54,29.50,29.23,3,0,3,0.00
2013-2-14,57.2,39.7,29.9,34.4,28.0,21.6,84,65,38,29.56,29.35,8,2,8,0.00
2013-2-15,57.8,41.3,29.7,37.6,30.5,22.2,82,67,43,29.58,29.48,8,1,8,0.00
2013-2-16,40.1,34.1,27.4,31.0,24.5,14.3,84,68,54,29.55,29.43,3,1,3,0.00
2013-2-17,32.6,26.3,22.7,15.8,11.8,6.8,69,55,36,29.77,29.43,14,6,14,0.00
2013-2-18,50.2,32.1,16.6,19.2,12.6,5.4,63,46,26,29.92,29.65,9,2,9,0.00
2013-2-19,45.0,36.3,29.3,34.4,23.5,16.7,79,60,49,29.65,29.34,10,3,10,0.00
2013-2-20,36.0,30.6,23.2,20.0,13.9,7.9,55,50,42,29.74,29.42,16,8,16,0.00
2013-2-21,48.1,30.7,22.7,20.9,14.0,8.8,61,51,33,29.88,29.69,11,5,11,0.00
2013-2-22,32.6,29.9,25.6,26.8,21.6,14.1,79,71,60,29.92,29.73,5,2,5,0.00
2013-2-23,58.3,40.1,32.8,43.1,32.5,27.0,82,75,57,29.72,29.40,5,1,5,0.00
2013-2-24,57.1,41.7,30.4,35.2,28.4,16.9,86,62,33,29.69,29.37,15,3,15,0.00
2013-2-25,42.1,29.9,25.2,20.3,16.5,15.0,67,58,41,29.75,29.69,2,0,2,0.00
2013-2-26,39.6,33.0,24.1,36.5,26.8,14.9,90,78,64,29.75,29.21,6,1,6,0.00
2013-2-27,57.6,44.7,37.1,44.4,35.0,31.8,89,71,45,29.26,29.14,10,3,10,0.00
2013-2-28,44.6,40.5,36.2,33.7,28.6,26.3,72,63,51,29.30,29.21,10,4,10,0.00
2013-3-1,42.3,38.3,34.2,29.3,26.6,23.6,69,63,52,29.47,29.30,9,4,9,0.00
2013-3-2,38.5,32.6,27.5,23.6,20.7,16.4,67,61,53,29.47,29.39,8,2,8,0.00
2013-3-3,44.5,34.4,27.7,21.3,18.6,15.4,66,53,38,29.50,29.39,15,6,15,0.00
2013-3-4,52.0,35.2,25.9,22.1,16.8,13.5,62,48,30,29.60,29.51,14,6,14,0.00
2013-3-5,58.7,41.7,30.2,28.3,21.3,15.5,76,46,29,29.63,29.37,5,2,5,0.00
2013-3-6,42.3,35.7,32.6,34.6,30.1,26.8,89,80,71,29.59,29.24,7,2,7,0.00
2013-3-7,53.1,40.4,34.2,33.5,28.9,26.1,75,64,46,29.74,29.59,10,2,10,0.00
2013-3-8,54.7,40.4,33.8,32.5,27.5,24.3,72,61,43,29.87,29.72,13,4,13,0.00
2013-3-9,70.9,45.0,30.4,35.7,26.7,18.7,73,52,25,29.94,29.81,7,2,7,0.00
2013-3-10,67.7,46.8,26.6,35.1,26.2,19.0,76,49,26,29.86,29.73,8,2,8,0.00
2013-3-11,59.4,50.9,43.2,48.2,36.5,23.9,76,59,37,29.73,29.41,8,4,8,0.00
2013-3-12,58.3,51.9,39.8,51.0,41.8,28.2,87,70,46,29.54,29.32,13,6,13,0.00
2013-3-13,52.2,39.4,30.2,30.6,24.4,18.6,74,56,36,29.64,29.48,12,5,12,0.00
2013-3-14,50.0,37.5,29.9,20.9,18.1,15.6,62,47,29,29.71,29.62,14,8,14,0.00
2013-3-15,63.2,43.6,26.6,34.9,24.5,15.5,65,48,33,29.66,29.34,10,3,10,0.00
2013-3-16,60.1,43.7,36.9,42.9,34.0,28.4,78,69,53,29.48,29.20,4,1,4,0.00
2013-3-17,40.7,37.5,34.2,32.8,28.2,25.4,81,70,57,29.80,29.48,3,1,3,0.00
2013-3-18,36.5,33.5,31.1,29.9,27.9,25.4,88,80,64,29.85,29.46,4,1,4,0.00
2013-3-19,60.8,43.5,32.9,41.1,26.0,10.3,89,59,18,29.49,29.29,16,5,16,0.00
2013-3-20,48.6,40.3,34.7,25.1,17.7,12.9,60,41,29,29.53,29.32,14,5,14,0.00
2013-3-21,38.9,32.2,26.1,23.7,15.1,8.9,62,50,36,29.46,29.35,12,4,12,0.00
2013-3-22,55.1,37.0,26.8,23.2,16.7,10.6,55,45,29,29.56,29.44,13,5,13,0.00
2013-3-23,62.6,40.6,23.6,27.7,20.6,14.0,70,48,24,29.59,29.47,9,2,9,0.00
2013-3-24,43.2,34.0,26.6,27.8,22.7,16.6,80,64,46,29.56,29.21,2,0,2,0.00
2013-3-25,44.5,36.2,32.4,35.5,30.4,27.5,84,80,69,29.27,29.09,2,0,2,0.00
2013-3-26,51.1,40.8,32.9,34.9,30.2,26.7,85,68,46,29.58,29.28,9,2,9,0.00
2013-3-27,51.5,40.8,32.8,32.9,27.9,24.7,73,61,46,29.66,29.58,14,5,14,0.00
2013-3-28,47.2,41.3,35.6,32.7,28.7,26.1,68,61,53,29.80,29.73,7,1,8,0.00
2013-3-29,58.9,45.3,34.9,35.3,29.5,22.6,76,56,31,29.81,29.70,6,1,6,0.00
2013-3-30,70.2,46.0,28.4,34.8,25.9,21.4,77,50,22,29.80,29.65,7,1,7,0.00
2013-3-31,50.8,42.4,35.1,44.5,34.5,22.1,83,74,55,29.65,29.31,2,0,2,0.00
2013-4-1,42.1,37.9,34.4,26.2,23.6,19.8,58,56,52,29.56,29.49,1,0,1,0.00
2013-4-2,55.4,40.6,29.2,20.2,17.1,12.2,63,41,24,29.73,29.56,12,4,12,0.00
2013-4-3,57.8,39.8,24.7,20.2,16.2,12.5,65,41,21,29.95,29.73,13,3,13,0.00
2013-4-4,52.6,36.0,19.4,23.6,15.0,9.2,69,45,23,29.95,29.62,8,2,8,0.00
2013-4-5,73.6,51.3,34.2,36.8,29.6,20.8,81,49,22,29.62,29.40,11,2,11,0.00
2013-4-6,67.5,47.4,31.7,27.1,21.9,16.7,60,39,19,29.88,29.63,4,2,4,0.00
2013-4-7,72.9,59.3,44.3,43.9,37.4,24.1,57,45,35,29.77,29.50,10,4,10,0.00
2013-4-8,84.6,69.5,57.1,49.3,45.7,42.9,59,44,27,29.63,29.48,8,2,8,0.00
2013-4-9,90.0,75.7,62.1,59.2,52.2,46.6,59,45,32,29.66,29.48,8,2,8,0.00
2013-4-10,94.3,79.2,65.2,60.0,54.4,48.5,56,44,29,29.54,29.34,8,2,8,0.00
2013-4-11,91.6,74.4,55.1,62.3,55.7,48.0,77,54,38,29.45,29.27,6,2,6,0.00
2013-4-12,82.6,60.9,53.5,66.0,53.7,40.5,87,78,57,29.37,29.14,9,2,9,0.00
2013-4-13,75.4,57.7,44.8,43.0,36.6,29.8,74,49,26,29.52,29.37,9,3,9,0.00
2013-4-14,74.3,55.6,37.1,43.0,36.2,28.5,72,50,30,29.71,29.53,6,1,6,0.00
2013-4-15,65.7,59.3,54.2,51.5,46.6,40.3,80,63,54,29.82,29.67,8,3,8,0.00
2013-4-16,78.7,65.2,55.1,60.5,55.0,48.6,85,71,53,29.82,29.64,11,4,11,0.00
2013-4-17,76.1,65.7,56.0,63.4,58.0,52.5,90,77,61,29.77,29.68,6,1,6,0.00
2013-4-18,76.7,66.9,60.5,63.0,57.8,55.1,86,73,59,29.77,29.52,9,3,9,0.00
2013-4-19,74.2,65.8,52.2,64.0,57.2,40.3,87,74,64,29.50,29.15,12,5,12,0.00
2013-4-20,64.1,52.0,42.3,38.2,30.8,26.7,60,45,30,29.90,29.37,12,6,12,0.00
2013-4-21,62.3,46.3,34.0,32.4,27.5,22.9,67,50,32,30.14,29.91,4,1,4,0.00
2013-4-22,62.6,45.6,33.1,37.6,30.8,25.6,74,58,38,30.10,29.93,6,0,6,0.00
2013-4-23,66.2,49.3,36.4,47.2,37.9,29.2,78,66,49,29.95,29.66,3,1,3,0.00
2013-4-24,77.9,58.0,38.5,56.4,46.2,33.2,85,67,44,29.66,29.32,12,3,12,0.00
2013-4-25,70.0,55.0,42.7,41.3,34.6,30.4,67,48,28,29.86,29.63,13,3,13,0.00
2013-4-26,70.4,53.2,37.1,41.9,35.3,29.1,77,53,33,30.02,29.86,5,1,5,0.00
2013-4-27,76.0,56.6,37.1,46.6,39.5,30.5,80,56,33,29.96,29.81,5,1,5,0.00
2013-4-28,58.3,52.5,43.9,48.1,43.7,36.2,84,73,54,29.82,29.68,9,2,9,0.00
2013-4-29,61.6,56.3,52.7,56.1,51.5,46.3,88,84,75,29.68,29.58,4,1,4,0.00
2013-4-30,61.9,57.5,54.0,56.7,53.1,50.6,90,85,81,29.85,29.66,2,1,2,0.00
2013-5-1,74.9,61.6,51.3,51.7,45.5,39.0,86,59,32,29.97,29.85,5,1,5,0.00
2013-5-2,74.9,57.6,40.0,52.4,43.6,34.3,83,62,40,29.98,29.87,5,1,5,0.00
2013-5-3,73.4,56.1,40.9,50.9,43.0,35.7,85,64,41,29.94,29.82,6,2,6,0.00
2013-5-4,74.2,56.8,41.6,47.9,42.1,34.1,80,60,38,29.89,29.72,6,1,6,0.00
2013-5-5,71.3,54.1,39.4,47.1,40.4,33.1,81,62,41,29.80,29.68,5,1,5,0.00
2013-5-6,58.0,52.4,42.3,54.4,46.8,35.9,89,81,72,29.73,29.61,3,1,3,0.00
2013-5-7,61.4,58.8,57.4,59.0,56.1,54.4,93,91,89,29.61,29.49,5,1,5,0.01
2013-5-8,72.5,58.2,51.5,60.5,53.6,48.3,92,85,63,29.57,29.48,3,1,3,0.00
2013-5-9,76.1,62.0,50.0,59.8,53.0,46.9,91,74,53,29.58,29.48,8,2,8,0.00
2013-5-10,83.5,65.4,51.7,61.9,55.8,47.7,88,73,43,29.58,29.42,6,1,6,0.01
2013-5-18,67.3,63.6,60.5,59.1,57.4,56.0,85,80,74,29.77,29.72,5,1,5,0.00
2013-5-19,71.6,64.0,58.7,64.5,59.4,55.2,90,85,74,29.76,29.64,5,1,5,0.00
2013-5-20,85.0,71.7,61.0,70.7,64.7,58.1,92,79,61,29.66,29.54,7,1,7,0.00
2013-5-21,90.2,75.3,62.6,73.4,66.4,59.0,88,75,54,29.56,29.42,7,2,7,0.00
2013-5-22,80.6,70.0,65.3,67.4,64.2,61.7,88,82,59,29.50,29.42,17,2,17,0.01
2013-5-23,78.5,67.9,63.4,69.0,63.4,60.7,91,86,70,29.46,29.32,6,1,6,0.00
2013-5-24,63.4,55.2,45.7,60.8,45.5,31.3,91,70,51,29.76,29.33,9,3,9,0.00
2013-5-25,68.6,53.6,41.0,43.5,36.8,31.3,71,54,37,29.79,29.68,10,4,10,0.00
2013-5-26,76.7,58.9,44.3,42.4,38.9,34.8,72,50,27,29.80,29.70,9,2,9,0.00
2013-5-27,66.2,56.2,42.1,51.4,44.3,36.0,80,66,47,29.85,29.74,3,1,3,0.00
2013-5-28,79.0,66.2,53.6,68.2,58.6,48.3,83,77,67,29.75,29.60,3,1,3,0.00
2013-5-29,90.2,75.9,61.4,67.9,63.6,57.2,87,68,41,29.68,29.63,6,2,6,0.00
2013-5-30,92.2,77.8,65.7,73.6,66.1,60.6,84,69,48,29.76,29.66,6,1,6,0.00
2013-5-31,92.9,77.6,64.6,67.9,63.5,59.3,84,64,40,29.71,29.58,6,2,6,0.00
2013-6-1,91.1,79.0,67.5,69.9,65.6,61.2,81,65,47,29.60,29.46,8,2,8,0.00
2013-6-2,81.9,72.9,67.9,69.9,65.5,60.4,90,78,67,29.46,29.41,5,1,5,0.01
2013-6-3,78.7,70.6,63.7,68.1,64.2,56.3,92,81,63,29.55,29.42,5,1,5,0.00
2013-6-4,79.6,64.6,52.2,55.6,51.7,46.9,84,65,42,29.70,29.56,4,1,4,0.00
2013-6-5,80.5,66.0,51.8,61.3,55.1,47.4,86,69,47,29.73,29.59,6,2,6,0.00
2013-6-6,67.7,64.5,62.6,62.0,57.3,50.8,90,78,63,29.61,29.43,6,2,6,0.01
2013-6-7,67.7,65.6,63.7,65.1,62.9,60.8,92,91,90,29.42,29.22,3,1,3,0.00
2013-6-8,83.7,72.7,65.5,67.3,63.4,60.1,91,73,58,29.66,29.32,4,1,4,0.00
2013-6-9,78.5,70.0,60.8,70.3,63.9,57.6,89,81,68,29.76,29.65,3,0,3,0.00
2013-6-10,80.5,70.3,67.5,73.8,67.0,64.4,92,90,77,29.65,29.35,4,1,4,0.95
2013-6-11,82.6,72.8,64.6,67.8,64.8,62.0,92,77,61,29.43,29.37,8,3,8,0.00
2013-6-12,92.5,77.4,65.7,72.3,66.8,60.8,86,71,52,29.44,29.36,8,2,8,0.03
2013-6-13,81.2,71.1,66.6,69.8,64.7,55.3,91,81,67,29.37,29.09,9,3,9,0.38
2013-6-14,81.7,69.4,61.7,59.9,56.0,52.7,75,63,45,29.56,29.23,6,2,6,0.00
2013-6-15,88.6,70.9,58.0,62.1,56.7,52.2,83,63,39,29.66,29.56,8,2,8,0.00
2013-6-16,80.1,71.0,60.5,66.8,60.8,53.6,82,71,60,29.59,29.46,6,2,6,0.00
2013-6-17,87.7,74.0,67.0,70.0,65.1,60.2,82,74,55,29.54,29.45,4,1,4,0.00
2013-6-18,73.4,70.4,67.3,69.5,66.0,62.8,90,86,77,29.49,29.37,4,1,4,0.67
2013-6-19,83.5,70.4,63.7,68.2,62.9,60.1,90,78,60,29.68,29.47,2,1,2,0.01
2013-6-20,78.5,72.8,67.3,64.5,62.7,58.4,80,71,62,29.80,29.76,4,2,4,0.00
2013-6-21,87.3,72.0,58.1,67.4,60.4,53.6,86,68,50,29.84,29.78,6,1,6,0.00
2013-6-22,89.6,73.7,59.2,70.4,63.5,55.4,88,72,53,29.81,29.68,5,2,5,0.00
2013-6-23,91.4,76.6,65.3,73.4,67.2,61.4,88,74,53,29.75,29.63,4,1,4,0.00
2013-6-24,94.7,76.1,67.3,74.1,67.9,63.0,87,77,48,29.72,29.60,4,1,4,0.00
2013-6-25,93.6,79.8,68.0,76.1,69.1,61.4,86,71,54,29.61,29.46,6,2,6,0.00
2013-6-26,81.7,74.2,68.4,70.6,66.4,61.3,84,77,69,29.49,29.40,3,1,3,0.00
2013-6-27,84.1,75.3,67.7,74.4,68.3,64.3,90,80,66,29.40,29.19,5,2,5,0.00
2013-6-28,90.4,77.0,70.4,72.5,66.3,61.6,82,70,54,29.21,29.06,4,2,4,0.00
2013-6-29,89.6,75.3,65.7,68.0,63.4,59.4,88,68,47,29.28,29.10,7,2,7,0.00
2013-6-30,88.2,74.7,66.2,75.2,68.1,62.6,90,81,60,29.40,29.27,6,1,6,0.00
2013-7-1,83.5,75.5,70.0,71.4,69.0,66.2,88,80,67,29.52,29.40,5,2,5,0.00
2013-7-2,80.5,75.6,71.8,71.2,69.2,67.6,88,81,72,29.70,29.52,6,3,6,0.00
2013-7-3,77.9,76.7,75.6,72.4,71.4,70.5,84,84,83,29.76,29.73,4,3,4,0.00
2013-7-4,87.5,78.6,70.0,75.2,70.8,66.8,90,78,63,29.80,29.71,8,2,8,0.00
2013-7-5,90.0,79.7,69.7,74.3,70.4,65.9,89,74,54,29.78,29.67,9,2,9,0.00
2013-7-6,95.8,81.9,72.0,75.3,70.9,67.1,87,71,52,29.75,29.62,7,2,7,0.00
2013-7-7,91.4,77.2,69.8,75.9,68.9,66.1,88,76,56,29.66,29.56,9,1,9,0.00
2013-7-8,91.6,77.4,67.3,70.7,67.5,64.1,91,73,49,29.68,29.60,5,1,5,0.00
2013-7-9,85.9,76.8,70.6,72.0,68.6,65.4,86,76,61,29.67,29.56,7,1,7,0.00
2013-7-10,85.1,77.1,72.2,74.3,70.3,67.8,88,80,69,29.57,29.43,4,1,4,0.00
2013-7-11,84.2,76.9,71.3,71.0,68.4,65.9,86,75,63,29.51,29.42,4,1,4,0.00
2013-7-12,73.6,69.3,65.5,68.1,65.1,62.2,91,87,75,29.64,29.49,4,1,4,0.00
2013-7-13,84.6,74.1,67.1,74.6,68.9,64.4,92,84,72,29.82,29.62,3,1,3,0.00
2013-7-14,89.8,78.7,70.4,73.0,70.2,67.3,91,77,55,29.89,29.82,6,1,6,0.00
2013-7-15,100.1,80.7,67.7,77.1,70.8,64.0,90,74,48,29.88,29.77,3,1,3,0.00
2013-7-16,96.7,81.6,71.3,78.4,72.0,67.5,88,74,54,29.84,29.75,3,1,3,0.00
2013-7-17,96.1,83.1,73.1,76.2,72.2,68.7,87,71,50,29.81,29.66,5,1,5,0.00
2013-7-18,86.0,78.7,73.4,74.7,72.1,69.4,88,80,67,29.70,29.58,5,0,5,0.00
2013-7-19,98.1,83.6,74.2,80.1,74.4,69.9,89,75,51,29.58,29.46,5,1,5,0.00
2013-7-20,97.4,90.3,78.3,73.9,71.4,68.1,71,55,46,29.45,29.36,8,2,8,0.20
2013-7-21,81.2,74.0,70.2,69.6,67.1,64.9,85,79,68,29.51,29.46,0,0,0,0.00
2013-7-25,76.1,70.7,62.5,58.1,56.7,54.7,76,62,52,29.62,29.57,2,0,2,0.00
2013-7-26,88.2,69.6,55.6,63.5,58.1,50.9,87,69,40,29.67,29.58,4,1,4,0.00
2013-7-27,79.7,70.4,61.6,70.2,64.4,56.7,88,81,71,29.60,29.47,5,1,5,0.05
2013-7-28,85.3,73.4,66.8,73.2,67.2,63.1,91,82,64,29.56,29.44,4,1,4,0.32
2013-7-29,82.6,69.0,58.0,62.2,58.4,54.5,90,71,49,29.73,29.57,6,1,6,0.00
2013-7-30,82.6,69.0,56.2,65.2,59.2,51.3,86,72,52,29.80,29.70,4,1,4,0.00
2013-7-31,79.0,68.8,61.4,68.9,63.1,57.7,90,82,69,29.71,29.56,4,1,4,0.14
2013-8-1,85.0,72.5,66.1,71.9,66.8,63.4,92,83,65,29.56,29.38,4,1,4,0.03
2013-8-2,88.9,74.3,64.1,68.5,63.1,59.3,89,70,46,29.53,29.45,7,1,7,0.00
2013-8-3,72.0,68.6,65.2,67.8,64.0,58.8,91,85,74,29.54,29.50,4,0,4,0.19
2013-8-4,82.6,69.1,60.1,64.7,59.1,53.6,92,73,44,29.61,29.50,9,1,9,0.00
2013-8-5,85.7,68.4,55.4,60.3,56.5,50.6,87,68,39,29.68,29.57,6,1,6,0.00
2013-8-6,82.3,69.5,62.6,70.9,63.4,57.4,90,81,67,29.62,29.55,6,1,6,0.50
2013-8-7,83.5,73.2,67.3,74.0,68.0,63.5,90,84,67,29.62,29.53,10,1,10,0.29
2013-8-8,80.3,74.0,68.0,74.0,70.0,65.6,92,87,78,29.58,29.52,4,1,4,0.10
2013-8-9,83.5,77.2,72.4,75.9,71.7,69.1,92,83,72,29.54,29.45,6,2,6,0.02
2013-8-10,85.1,74.9,68.6,69.6,67.4,63.9,90,79,54,29.65,29.53,2,0,2,0.01
2013-8-11,87.8,75.0,67.3,72.5,67.3,63.2,90,78,58,29.67,29.56,4,1,4,0.00
2013-8-12,90.0,76.7,66.4,71.5,67.5,63.4,90,75,51,29.59,29.47,7,1,7,0.00
2013-8-13,87.5,75.5,67.1,72.0,67.3,61.0,90,77,55,29.47,29.32,6,1,6,0.34
2013-8-14,78.8,65.5,55.3,68.6,52.7,48.5,79,64,50,29.67,29.42,8,2,8,0.01
2013-8-15,79.4,63.4,50.0,57.2,51.4,45.9,88,67,41,29.76,29.66,4,1,4,0.00
2013-8-16,81.0,64.9,50.9,61.1,53.6,45.9,86,69,46,29.75,29.69,4,0,4,0.00
2013-8-17,79.7,66.2,51.8,62.5,56.7,47.2,86,73,54,29.83,29.76,3,0,3,0.00
2013-8-18,70.7,65.1,61.9,62.2,59.9,58.1,87,83,73,29.82,29.74,2,0,2,0.15
2013-8-19,79.4,67.5,59.0,70.7,62.9,55.8,90,85,75,29.74,29.62,2,0,2,0.03
2013-8-20,87.5,72.5,60.5,69.9,64.1,57.6,91,77,53,29.74,29.66,2,1,2,0.00
2013-8-21,87.1,73.3,63.2,73.9,66.1,59.3,89,79,61,29.76,29.63,4,1,4,0.02
2013-8-22,88.2,76.0,67.1,70.6,66.5,63.6,90,74,54,29.66,29.51,6,1,6,0.00
2013-8-23,73.6,68.8,61.0,67.1,64.0,57.5,90,85,76,29.69,29.52,2,0,2,0.47
2013-8-24,82.8,67.3,56.9,66.1,59.5,53.6,92,78,52,29.89,29.69,3,1,3,0.04
2013-8-25,82.8,67.3,54.5,65.3,58.3,50.8,90,74,51,29.97,29.81,7,1,7,0.08
2013-8-26,89.6,74.0,62.8,66.9,62.3,57.9,84,68,46,29.83,29.59,5,2,5,0.00
2013-8-27,87.3,78.0,68.9,72.5,67.7,61.8,80,71,61,29.58,29.47,7,2,7,0.00
2013-8-28,74.7,72.5,70.2,71.2,68.7,66.4,92,88,78,29.50,29.38,3,0,3,0.28
2013-8-29,86.2,75.4,68.6,74.3,70.1,64.5,93,84,67,29.58,29.42,2,0,3,0.00
2013-8-30,87.7,74.8,64.1,72.7,66.9,61.2,93,78,57,29.58,29.43,6,2,6,0.00
2013-8-31,88.6,79.5,72.5,72.6,69.8,66.5,85,73,58,29.44,29.35,4,2,4,0.00
2013-9-1,89.6,77.1,67.3,73.0,67.9,63.3,89,74,57,29.42,29.33,4,1,4,0.00
2013-9-2,92.9,78.6,69.5,72.6,68.7,65.6,89,73,48,29.38,29.29,6,1,6,0.00
2013-9-3,87.5,75.0,65.0,67.5,61.4,54.6,83,64,40,29.55,29.32,9,2,9,0.00
2013-9-4,87.5,69.3,57.6,59.5,55.3,51.7,83,63,38,29.66,29.55,5,1,5,0.00
2013-9-5,85.5,69.9,57.8,63.1,56.0,49.6,83,63,41,29.70,29.59,8,2,8,0.00
2013-9-6,82.1,63.2,49.7,53.4,48.5,43.9,82,61,35,29.83,29.69,4,1,4,0.00
2013-9-7,88.6,64.8,48.4,59.4,50.7,43.0,82,63,34,29.70,29.50,4,1,4,0.00
2013-9-8,87.7,72.5,61.9,68.3,61.5,52.7,86,70,51,29.61,29.45,4,1,4,0.04
2013-9-9,79.9,69.2,61.6,64.5,58.5,52.7,81,69,55,29.76,29.62,8,1,8,0.00
2013-9-10,94.7,78.1,65.3,73.6,67.5,60.2,87,72,49,29.73,29.63,5,2,5,0.00
2013-9-11,93.2,88.0,80.1,72.6,71.4,69.5,70,59,51,29.60,29.57,5,3,5,0.00
2013-9-14,69.5,57.9,49.3,47.1,43.4,40.7,73,59,45,29.72,29.65,0,0,0,0.00
2013-9-15,80.3,60.0,43.7,57.3,48.6,38.9,85,68,45,29.78,29.63,4,1,4,0.00
2013-9-16,74.3,64.0,56.9,58.9,55.8,50.8,86,75,56,29.78,29.59,5,1,5,0.00
2013-9-17,74.3,57.3,47.2,50.4,44.9,37.9,84,65,40,29.98,29.80,4,1,4,0.00
2013-9-18,70.9,54.1,38.3,49.4,42.6,33.0,85,67,44,29.89,29.72,6,1,6,0.00
2013-9-19,77.8,61.4,47.3,59.6,51.3,42.3,85,71,51,29.74,29.63,4,1,4,0.00
2013-9-20,82.8,66.1,53.3,64.7,56.9,48.6,87,74,54,29.63,29.50,5,1,5,0.00
2013-9-21,66.6,63.1,61.2,63.8,60.0,58.3,91,90,88,29.32,29.25,3,1,3,0.58
2013-9-22,71.6,60.9,51.8,58.0,53.2,45.2,91,77,52,29.54,29.31,4,1,4,0.02
2013-9-23,71.3,57.3,48.6,51.4,46.1,41.7,82,67,48,29.66,29.53,6,1,6,0.00
2013-9-24,79.6,55.6,40.3,56.9,45.6,35.8,87,71,46,29.69,29.51,4,1,4,0.00
2013-9-25,81.2,57.2,43.4,55.8,46.5,38.5,86,70,35,29.57,29.45,4,1,4,0.00
2013-9-26,82.1,61.5,46.8,57.5,48.7,42.2,86,66,35,29.64,29.50,4,1,4,0.00
2013-9-27,77.2,59.1,46.3,58.8,49.7,41.3,86,72,51,29.78,29.63,6,0,6,0.00
2013-9-28,68.0,58.3,49.5,56.8,50.8,44.5,86,77,61,29.87,29.78,2,0,2,0.00
2013-9-29,74.9,58.0,44.8,58.7,48.7,40.9,89,73,48,29.78,29.61,4,1,4,0.00
2013-9-30,84.6,60.1,45.0,59.0,49.2,40.5,86,70,41,29.66,29.54,3,0,3,0.00
2013-10-1,86.0,67.8,54.0,62.2,55.6,48.0,85,67,43,29.65,29.55,6,1,6,0.00
2013-10-2,91.1,69.9,56.2,64.7,57.0,50.7,83,66,41,29.66,29.58,6,1,6,0.00
2013-10-3,85.0,68.2,56.5,65.6,58.0,51.4,85,71,49,29.69,29.59,5,1,5,0.00
2013-10-5,90.4,77.9,62.1,68.5,63.7,57.5,86,63,44,29.67,29.55,3,1,3,0.00
2013-10-6,88.4,74.9,62.6,66.6,62.4,57.3,86,67,43,29.58,29.45,9,3,9,0.00
2013-10-7,74.2,64.6,51.7,66.2,57.7,44.7,90,79,60,29.63,29.30,9,3,9,0.52
2013-10-8,74.3,56.5,45.0,53.3,46.0,40.8,85,70,45,29.85,29.63,4,1,4,0.02
2013-10-9,61.7,52.9,44.5,50.0,45.3,40.2,86,76,59,29.90,29.81,3,0,3,0.02
2013-10-10,55.1,53.2,51.8,52.0,49.6,47.0,92,87,82,29.81,29.59,2,0,2,2.37
2013-10-11,59.6,56.7,53.8,57.6,54.4,51.2,93,92,91,29.59,29.55,3,0,3,2.11
2013-10-12,63.9,60.7,58.1,61.0,58.4,55.7,93,92,89,29.74,29.57,1,0,1,0.60
2013-10-13,59.0,58.0,56.7,57.1,55.6,54.4,93,92,92,29.87,29.74,1,0,1,0.33
2013-10-14,73.1,59.4,54.4,63.5,55.0,51.2,93,86,70,29.89,29.78,4,0,4,0.01
2013-10-15,72.5,57.9,47.9,60.9,52.0,45.5,92,82,56,29.79,29.63,3,0,3,0.00
2013-10-16,70.2,57.8,49.3,60.2,52.5,45.9,91,83,68,29.64,29.47,5,1,5,0.00
2013-10-17,67.9,63.2,57.6,63.6,57.9,48.2,89,83,71,29.44,29.26,8,4,8,0.05
2013-10-18,77.8,57.4,45.0,52.2,44.3,38.5,78,63,41,29.58,29.44,6,2,6,0.00
2013-10-19,62.6,50.9,41.0,53.1,44.1,36.2,87,78,68,29.55,29.32,8,1,8,0.05
2013-10-20,63.4,50.8,42.3,42.4,37.9,34.3,76,62,44,29.62,29.46,7,3,7,0.00
2013-10-23,49.9,45.6,41.2,38.8,36.6,32.9,74,71,62,29.47,29.27,5,3,5,0.00
2013-10-24,58.1,43.6,38.9,38.5,31.6,28.7,75,63,47,29.69,29.47,8,2,8,0.00
2013-10-25,62.8,42.3,31.0,38.0,29.7,24.0,80,62,39,29.86,29.69,12,2,12,0.00
2013-10-26,60.8,43.9,30.6,32.6,27.9,23.6,78,56,33,29.86,29.47,10,2,10,0.00
2013-10-27,72.4,50.7,37.6,42.0,34.0,28.8,71,54,32,29.69,29.52,7,1,7,0.00
2013-10-28,68.4,45.2,31.0,44.9,33.9,25.8,83,66,43,29.83,29.69,4,0,4,0.01
2013-10-29,68.9,47.0,33.7,47.8,36.8,28.5,84,69,45,29.94,29.83,2,0,2,0.00
2013-10-30,74.2,56.0,45.5,58.4,47.2,38.4,83,73,55,29.85,29.69,3,0,3,0.00
2013-10-31,67.3,60.8,54.4,58.8,54.4,49.1,85,80,70,29.70,29.29,5,2,5,0.02
2013-11-1,90.9,66.1,50.0,60.8,53.2,42.0,88,66,32,29.26,29.10,9,3,9,0.32
2013-11-2,71.1,53.9,44.5,49.7,42.4,36.5,85,67,39,29.46,29.22,10,2,10,0.00
2013-11-3,70.7,48.9,36.2,38.6,32.6,23.9,73,55,28,29.99,29.46,6,1,6,0.05
2013-11-4,47.9,37.4,28.6,26.8,24.1,20.2,71,59,42,30.18,30.00,4,0,4,0.00
2013-11-5,53.8,42.8,30.6,41.5,32.8,24.2,79,68,53,30.16,29.98,4,1,4,0.00
2013-11-6,75.6,57.8,47.3,53.3,47.0,40.5,82,68,45,29.98,29.58,7,3,7,0.00
2013-11-7,61.9,53.3,40.0,51.6,43.0,24.8,83,69,50,29.66,29.43,10,3,10,0.08
2013-11-8,64.8,43.4,29.2,33.9,26.3,19.7,69,52,31,29.86,29.64,10,2,10,0.00
2013-11-9,62.1,42.5,25.9,32.7,26.4,19.1,78,56,31,29.87,29.57,7,2,7,0.06
2013-11-10,65.7,51.2,41.4,35.6,30.0,24.6,60,45,30,29.80,29.54,13,4,13,0.01
2013-11-11,67.7,47.1,33.3,33.7,28.3,23.1,70,50,28,29.84,29.55,6,1,6,0.00
2013-11-12,51.1,38.8,29.5,37.4,23.5,15.2,70,54,40,29.96,29.53,8,2,8,0.00
2013-11-13,58.1,35.6,25.9,25.9,18.4,13.1,65,51,25,30.04,29.92,11,3,11,0.00
2013-11-14,74.0,39.2,22.9,31.1,18.2,13.1,68,47,19,29.91,29.76,3,1,3,0.00
2013-11-15,66.2,42.6,24.5,34.4,23.3,15.8,72,50,21,29.82,29.71,4,1,4,0.01
2013-11-16,69.7,52.3,41.8,51.2,42.7,34.4,87,71,52,29.85,29.75,6,1,6,0.01
2013-11-17,64.4,56.7,47.5,56.5,51.8,43.2,89,84,72,29.75,29.25,6,3,6,0.02
2013-11-18,74.7,58.6,47.2,56.9,35.9,26.7,86,46,22,29.52,29.24,13,5,13,0.12
2013-11-19,59.9,43.0,32.2,30.6,25.4,21.4,65,50,33,29.93,29.52,10,2,10,0.00
2013-11-20,65.7,37.2,24.8,33.6,22.5,16.8,76,58,28,30.10,29.93,3,1,3,0.00
2013-11-21,50.8,37.0,24.8,37.9,28.4,17.0,79,71,61,30.10,29.90,2,0,2,0.00
2013-11-22,65.9,52.0,39.8,52.1,43.9,33.9,81,74,61,29.90,29.58,5,1,5,0.00
2013-11-23,52.9,42.2,29.5,43.8,27.7,14.0,72,57,38,29.77,29.61,13,4,13,0.00
2013-11-24,42.5,27.5,20.9,13.8,7.5,4.3,53,43,27,30.05,29.78,17,6,17,0.00
2013-11-25,45.0,28.2,15.1,14.1,9.1,4.1,66,46,27,30.08,29.85,5,1,5,0.00
2013-11-26,35.6,34.5,33.1,31.1,25.0,13.4,86,70,44,29.84,29.23,3,1,3,1.32
2013-11-27,38.9,34.9,26.6,34.0,28.3,14.5,87,77,59,29.58,29.14,13,5,13,0.10
2013-11-28,52.4,32.7,25.0,27.9,18.3,13.5,66,56,37,29.99,29.62,10,3,10,0.00
2013-11-29,54.4,33.5,22.7,29.9,20.6,14.0,76,61,37,30.25,29.99,5,1,5,0.00
2013-11-30,39.2,27.0,17.1,25.0,17.4,10.8,78,67,54,30.25,29.90,4,1,4,0.00
2013-12-1,46.3,29.9,18.5,33.2,21.9,12.7,80,72,59,29.89,29.56,2,0,2,0.00
2013-12-2,45.5,38.9,35.3,34.0,30.6,28.3,77,72,64,29.55,29.42,1,0,1,0.00
2013-12-3,68.6,42.7,31.3,45.7,32.7,26.2,84,70,41,29.53,29.42,2,0,2,0.00
2013-12-4,65.2,43.5,30.2,47.6,35.6,25.4,84,75,51,29.63,29.53,2,0,2,0.00
2013-12-5,67.5,53.3,38.5,56.6,47.3,34.9,89,81,65,29.59,29.46,4,1,4,0.01
2013-12-6,58.7,47.0,36.9,55.8,43.7,33.9,90,88,86,29.73,29.43,6,1,6,1.78
2013-12-7,47.9,36.5,27.9,35.2,29.5,21.0,89,76,56,30.08,29.71,10,2,10,0.01
2013-12-8,28.4,26.2,23.9,25.4,21.2,18.7,88,82,75,30.11,29.84,2,0,2,0.00
2013-12-9,43.0,33.5,28.4,37.5,30.0,25.4,91,87,80,29.84,29.58,2,0,2,0.41
2013-12-10,47.5,33.6,25.6,33.2,26.7,16.7,91,77,50,29.75,29.54,15,3,15,0.11
2013-12-11,55.4,29.3,17.6,26.7,16.3,10.4,75,60,33,29.93,29.76,8,1,8,0.05
2013-12-12,49.5,29.2,18.7,21.8,13.0,4.7,71,52,33,29.97,29.77,10,3,10,0.00
2013-12-13,55.1,31.0,18.7,27.7,14.6,4.3,70,52,32,29.83,29.74,3,1,3,0.04
2013-12-14,37.6,31.9,27.9,31.4,26.0,19.1,87,79,69,29.85,29.31,2,0,2,0.05
2013-12-15,47.3,36.3,32.0,35.1,29.2,22.2,90,76,48,29.49,29.21,13,3,13,0.15
2013-12-16,39.2,33.1,30.2,26.3,24.1,22.5,76,70,58,29.71,29.49,5,2,5,0.00
2013-12-17,44.1,35.1,30.4,34.2,28.0,24.0,80,75,66,29.66,29.46,3,1,3,0.00
2013-12-18,36.4,28.7,23.4,20.7,17.9,15.7,73,64,52,29.75,29.72,1,0,1,0.00
2013-12-19,73.6,41.5,23.0,39.2,25.7,16.0,76,56,28,29.72,29.59,7,1,7,0.00
2013-12-20,61.9,50.9,38.5,36.5,31.7,27.5,65,48,36,29.63,29.52,4,2,4,0.00
2013-12-21,76.1,59.6,51.3,53.7,43.5,36.5,68,56,45,29.54,29.42,5,2,5,0.00
2013-12-31,51.5,32.9,23.6,25.9,17.1,14.2,67,53,37,29.84,29.71,12,4,12,0.00
2014-1-1,56.9,33.4,21.6,34.4,21.4,14.7,76,63,36,29.92,29.65,2,0,2,0.00
2014-1-2,34.6,30.3,25.9,26.8,24.1,20.0,84,78,71,29.65,29.20,3,0,3,0.00